sensor_id;sensor_type;location;lat;lon;timestamp;temperature;humidity
25640;DHT22;13497;48.322;16.204;2022-09-21T00:00:45;9.70;99.90
25640;DHT22;13497;48.322;16.204;2022-09-21T00:03:10;9.70;99.90
25640;DHT22;13497;48.322;16.204;2022-09-21T00:05:38;9.70;99.90
25640;DHT22;13497;48.322;16.204;2022-09-21T00:08:06;9.80;99.90
25640;DHT22;13497;48.322;16.204;2022-09-21T00:10:32;9.80;99.90
25640;DHT22;13497;48.322;16.204;2022-09-21T00:12:59;9.80;99.90
25640;DHT22;13497;48.322;16.204;2022-09-21T00:15:28;9.80;99.90
25640;DHT22;13497;48.322;16.204;2022-09-21T00:17:56;9.90;99.90
25640;DHT22;13497;48.322;16.204;2022-09-21T00:20:23;9.90;99.90
25640;DHT22;13497;48.322;16.204;2022-09-21T00:22:50;9.90;99.90
25640;DHT22;13497;48.322;16.204;2022-09-21T00:25:18;9.90;99.90
25640;DHT22;13497;48.322;16.204;2022-09-21T00:27:44;9.90;99.90
25640;DHT22;13497;48.322;16.204;2022-09-21T00:30:13;9.90;99.90
25640;DHT22;13497;48.322;16.204;2022-09-21T00:32:40;9.90;99.90
25640;DHT22;13497;48.322;16.204;2022-09-21T00:35:08;10.00;99.90
25640;DHT22;13497;48.322;16.204;2022-09-21T00:37:34;10.00;99.90
25640;DHT22;13497;48.322;16.204;2022-09-21T00:40:00;9.90;99.90
25640;DHT22;13497;48.322;16.204;2022-09-21T00:42:29;10.00;99.90
25640;DHT22;13497;48.322;16.204;2022-09-21T00:44:55;10.00;99.90
25640;DHT22;13497;48.322;16.204;2022-09-21T00:47:40;10.00;99.90
25640;DHT22;13497;48.322;16.204;2022-09-21T00:50:10;10.00;99.90
25640;DHT22;13497;48.322;16.204;2022-09-21T00:52:42;10.00;99.90
25640;DHT22;13497;48.322;16.204;2022-09-21T00:55:17;10.00;99.90
25640;DHT22;13497;48.322;16.204;2022-09-21T00:57:45;10.00;99.90
25640;DHT22;13497;48.322;16.204;2022-09-21T01:00:14;10.00;99.90
25640;DHT22;13497;48.322;16.204;2022-09-21T01:02:43;10.10;99.90
25640;DHT22;13497;48.322;16.204;2022-09-21T01:05:09;10.00;99.90
25640;DHT22;13497;48.322;16.204;2022-09-21T01:07:39;10.10;99.90
25640;DHT22;13497;48.322;16.204;2022-09-21T01:10:12;10.10;99.90
25640;DHT22;13497;48.322;16.204;2022-09-21T01:12:58;10.10;99.90
25640;DHT22;13497;48.322;16.204;2022-09-21T01:31:30;9.90;99.90
25640;DHT22;13497;48.322;16.204;2022-09-21T01:34:00;9.90;99.90
25640;DHT22;13497;48.322;16.204;2022-09-21T01:36:30;9.90;99.90
25640;DHT22;13497;48.322;16.204;2022-09-21T01:39:03;9.80;99.90
25640;DHT22;13497;48.322;16.204;2022-09-21T01:41:31;9.90;99.90
25640;DHT22;13497;48.322;16.204;2022-09-21T01:44:02;9.80;99.90
25640;DHT22;13497;48.322;16.204;2022-09-21T01:46:33;9.80;99.90
25640;DHT22;13497;48.322;16.204;2022-09-21T01:49:10;9.80;99.90
25640;DHT22;13497;48.322;16.204;2022-09-21T01:51:42;9.80;99.90
25640;DHT22;13497;48.322;16.204;2022-09-21T01:54:21;9.80;99.90
25640;DHT22;13497;48.322;16.204;2022-09-21T01:56:58;9.80;99.90
25640;DHT22;13497;48.322;16.204;2022-09-21T01:59:41;9.80;99.90
25640;DHT22;13497;48.322;16.204;2022-09-21T02:02:14;9.90;99.90
25640;DHT22;13497;48.322;16.204;2022-09-21T02:04:41;9.90;99.90
25640;DHT22;13497;48.322;16.204;2022-09-21T02:07:07;9.90;99.90
25640;DHT22;13497;48.322;16.204;2022-09-21T02:09:35;9.90;99.90
25640;DHT22;13497;48.322;16.204;2022-09-21T02:12:02;9.80;99.90
25640;DHT22;13497;48.322;16.204;2022-09-21T02:14:28;9.80;99.90
25640;DHT22;13497;48.322;16.204;2022-09-21T02:20:08;9.90;99.90
25640;DHT22;13497;48.322;16.204;2022-09-21T02:26:02;9.90;99.90
25640;DHT22;13497;48.322;16.204;2022-09-21T02:28:52;10.00;99.90
25640;DHT22;13497;48.322;16.204;2022-09-21T02:31:30;10.10;99.90
25640;DHT22;13497;48.322;16.204;2022-09-21T02:36:49;10.00;99.90
25640;DHT22;13497;48.322;16.204;2022-09-21T02:39:23;10.10;99.90
25640;DHT22;13497;48.322;16.204;2022-09-21T02:44:41;10.20;99.90
25640;DHT22;13497;48.322;16.204;2022-09-21T02:47:25;10.20;99.90
25640;DHT22;13497;48.322;16.204;2022-09-21T02:49:54;10.10;99.90
25640;DHT22;13497;48.322;16.204;2022-09-21T02:52:24;10.10;99.90
25640;DHT22;13497;48.322;16.204;2022-09-21T02:54:52;10.10;99.90
25640;DHT22;13497;48.322;16.204;2022-09-21T02:57:20;10.10;99.90
25640;DHT22;13497;48.322;16.204;2022-09-21T02:59:46;10.10;99.90
25640;DHT22;13497;48.322;16.204;2022-09-21T03:02:14;10.10;99.90
25640;DHT22;13497;48.322;16.204;2022-09-21T03:04:42;10.20;99.90
25640;DHT22;13497;48.322;16.204;2022-09-21T03:07:08;10.10;99.90
25640;DHT22;13497;48.322;16.204;2022-09-21T03:09:34;10.10;99.90
25640;DHT22;13497;48.322;16.204;2022-09-21T03:12:00;10.20;99.90
25640;DHT22;13497;48.322;16.204;2022-09-21T03:14:26;10.20;99.90
25640;DHT22;13497;48.322;16.204;2022-09-21T03:16:51;10.20;99.90
25640;DHT22;13497;48.322;16.204;2022-09-21T03:19:18;10.20;99.90
25640;DHT22;13497;48.322;16.204;2022-09-21T03:21:43;10.20;99.90
25640;DHT22;13497;48.322;16.204;2022-09-21T03:24:09;10.20;99.90
25640;DHT22;13497;48.322;16.204;2022-09-21T03:26:35;10.20;99.90
25640;DHT22;13497;48.322;16.204;2022-09-21T03:29:01;10.20;99.90
25640;DHT22;13497;48.322;16.204;2022-09-21T03:31:28;10.10;99.90
25640;DHT22;13497;48.322;16.204;2022-09-21T03:33:56;10.00;99.90
25640;DHT22;13497;48.322;16.204;2022-09-21T03:36:25;9.80;99.90
25640;DHT22;13497;48.322;16.204;2022-09-21T03:38:50;9.70;99.90
25640;DHT22;13497;48.322;16.204;2022-09-21T03:41:16;9.60;99.90
25640;DHT22;13497;48.322;16.204;2022-09-21T03:43:42;9.60;99.90
25640;DHT22;13497;48.322;16.204;2022-09-21T03:46:07;9.60;99.90
25640;DHT22;13497;48.322;16.204;2022-09-21T03:48:33;9.70;99.90
25640;DHT22;13497;48.322;16.204;2022-09-21T03:50:58;9.70;99.90
25640;DHT22;13497;48.322;16.204;2022-09-21T03:53:24;9.80;99.90
25640;DHT22;13497;48.322;16.204;2022-09-21T03:55:49;9.80;99.90
25640;DHT22;13497;48.322;16.204;2022-09-21T03:58:15;9.70;99.90
25640;DHT22;13497;48.322;16.204;2022-09-21T04:00:41;9.60;99.90
25640;DHT22;13497;48.322;16.204;2022-09-21T04:03:08;9.50;99.90
25640;DHT22;13497;48.322;16.204;2022-09-21T04:05:33;9.30;99.90
25640;DHT22;13497;48.322;16.204;2022-09-21T04:07:59;9.20;99.90
25640;DHT22;13497;48.322;16.204;2022-09-21T04:10:26;9.10;99.90
25640;DHT22;13497;48.322;16.204;2022-09-21T04:12:59;9.10;99.90
25640;DHT22;13497;48.322;16.204;2022-09-21T04:15:29;9.00;99.90
25640;DHT22;13497;48.322;16.204;2022-09-21T04:17:56;9.00;99.90
25640;DHT22;13497;48.322;16.204;2022-09-21T04:20:22;9.00;99.90
25640;DHT22;13497;48.322;16.204;2022-09-21T04:22:47;9.00;99.90
25640;DHT22;13497;48.322;16.204;2022-09-21T04:25:14;9.00;99.90
25640;DHT22;13497;48.322;16.204;2022-09-21T04:27:40;9.00;99.90
25640;DHT22;13497;48.322;16.204;2022-09-21T04:30:06;9.00;99.90
25640;DHT22;13497;48.322;16.204;2022-09-21T04:32:32;8.90;99.90
25640;DHT22;13497;48.322;16.204;2022-09-21T04:34:58;9.00;99.90
25640;DHT22;13497;48.322;16.204;2022-09-21T04:37:24;9.00;99.90
25640;DHT22;13497;48.322;16.204;2022-09-21T04:39:49;9.00;99.90
25640;DHT22;13497;48.322;16.204;2022-09-21T04:42:16;9.00;99.90
25640;DHT22;13497;48.322;16.204;2022-09-21T04:44:42;9.00;99.90
25640;DHT22;13497;48.322;16.204;2022-09-21T04:47:07;9.10;99.90
25640;DHT22;13497;48.322;16.204;2022-09-21T04:49:36;9.10;99.90
25640;DHT22;13497;48.322;16.204;2022-09-21T04:52:02;9.10;99.90
25640;DHT22;13497;48.322;16.204;2022-09-21T04:54:30;9.20;99.90
25640;DHT22;13497;48.322;16.204;2022-09-21T04:56:56;9.20;99.90
25640;DHT22;13497;48.322;16.204;2022-09-21T04:59:22;9.20;99.90
25640;DHT22;13497;48.322;16.204;2022-09-21T05:01:48;9.20;99.90
25640;DHT22;13497;48.322;16.204;2022-09-21T05:04:15;9.30;99.90
25640;DHT22;13497;48.322;16.204;2022-09-21T05:06:41;9.40;99.90
25640;DHT22;13497;48.322;16.204;2022-09-21T05:09:07;9.50;99.90
25640;DHT22;13497;48.322;16.204;2022-09-21T05:11:52;9.70;99.90
25640;DHT22;13497;48.322;16.204;2022-09-21T05:14:18;9.80;99.90
25640;DHT22;13497;48.322;16.204;2022-09-21T05:16:45;9.80;99.90
25640;DHT22;13497;48.322;16.204;2022-09-21T05:19:14;10.00;99.90
25640;DHT22;13497;48.322;16.204;2022-09-21T05:21:40;10.20;99.90
25640;DHT22;13497;48.322;16.204;2022-09-21T05:24:06;10.20;99.90
25640;DHT22;13497;48.322;16.204;2022-09-21T05:26:31;10.30;99.90
25640;DHT22;13497;48.322;16.204;2022-09-21T05:28:57;10.30;99.90
25640;DHT22;13497;48.322;16.204;2022-09-21T05:31:44;10.30;99.90
25640;DHT22;13497;48.322;16.204;2022-09-21T05:34:32;10.40;99.90
25640;DHT22;13497;48.322;16.204;2022-09-21T05:39:31;10.40;99.90
25640;DHT22;13497;48.322;16.204;2022-09-21T05:41:56;10.30;99.90
25640;DHT22;13497;48.322;16.204;2022-09-21T05:44:23;10.30;99.90
25640;DHT22;13497;48.322;16.204;2022-09-21T05:46:58;10.30;99.90
25640;DHT22;13497;48.322;16.204;2022-09-21T05:52:44;10.40;99.90
25640;DHT22;13497;48.322;16.204;2022-09-21T05:57:53;10.40;99.90
25640;DHT22;13497;48.322;16.204;2022-09-21T06:00:23;10.60;99.90
25640;DHT22;13497;48.322;16.204;2022-09-21T06:05:42;10.70;99.90
25640;DHT22;13497;48.322;16.204;2022-09-21T06:08:08;10.70;99.90
25640;DHT22;13497;48.322;16.204;2022-09-21T06:10:34;10.70;99.90
25640;DHT22;13497;48.322;16.204;2022-09-21T06:13:00;10.70;99.90
25640;DHT22;13497;48.322;16.204;2022-09-21T06:15:25;10.70;99.90
25640;DHT22;13497;48.322;16.204;2022-09-21T06:17:51;10.70;99.90
25640;DHT22;13497;48.322;16.204;2022-09-21T06:20:17;10.60;99.90
25640;DHT22;13497;48.322;16.204;2022-09-21T06:22:43;10.60;99.90
25640;DHT22;13497;48.322;16.204;2022-09-21T06:25:08;10.60;99.90
25640;DHT22;13497;48.322;16.204;2022-09-21T06:27:34;10.50;99.90
25640;DHT22;13497;48.322;16.204;2022-09-21T06:30:00;10.60;99.90
25640;DHT22;13497;48.322;16.204;2022-09-21T06:32:25;10.70;99.90
25640;DHT22;13497;48.322;16.204;2022-09-21T06:34:51;10.90;99.90
25640;DHT22;13497;48.322;16.204;2022-09-21T06:37:17;11.20;99.90
25640;DHT22;13497;48.322;16.204;2022-09-21T06:39:42;11.30;99.90
25640;DHT22;13497;48.322;16.204;2022-09-21T06:42:08;11.40;99.90
25640;DHT22;13497;48.322;16.204;2022-09-21T06:44:33;11.50;99.90
25640;DHT22;13497;48.322;16.204;2022-09-21T06:46:59;11.50;99.90
25640;DHT22;13497;48.322;16.204;2022-09-21T06:49:25;11.70;99.90
25640;DHT22;13497;48.322;16.204;2022-09-21T06:51:55;11.70;99.90
25640;DHT22;13497;48.322;16.204;2022-09-21T06:54:22;11.80;99.90
25640;DHT22;13497;48.322;16.204;2022-09-21T06:56:48;11.90;99.90
25640;DHT22;13497;48.322;16.204;2022-09-21T06:59:14;11.90;99.90
25640;DHT22;13497;48.322;16.204;2022-09-21T07:01:39;11.90;99.90
25640;DHT22;13497;48.322;16.204;2022-09-21T07:04:05;11.90;99.90
25640;DHT22;13497;48.322;16.204;2022-09-21T07:06:33;12.00;99.90
25640;DHT22;13497;48.322;16.204;2022-09-21T07:08:59;11.90;99.90
25640;DHT22;13497;48.322;16.204;2022-09-21T07:11:26;12.00;99.90
25640;DHT22;13497;48.322;16.204;2022-09-21T07:13:52;11.90;99.90
25640;DHT22;13497;48.322;16.204;2022-09-21T07:16:17;11.80;99.90
25640;DHT22;13497;48.322;16.204;2022-09-21T07:18:43;11.80;99.90
25640;DHT22;13497;48.322;16.204;2022-09-21T07:21:10;11.80;99.90
25640;DHT22;13497;48.322;16.204;2022-09-21T07:23:36;11.60;99.90
25640;DHT22;13497;48.322;16.204;2022-09-21T07:26:07;11.50;99.90
25640;DHT22;13497;48.322;16.204;2022-09-21T07:28:33;11.50;99.90
25640;DHT22;13497;48.322;16.204;2022-09-21T07:31:09;11.50;99.90
25640;DHT22;13497;48.322;16.204;2022-09-21T07:33:35;11.60;99.90
25640;DHT22;13497;48.322;16.204;2022-09-21T07:36:01;11.80;99.90
25640;DHT22;13497;48.322;16.204;2022-09-21T07:38:40;12.00;99.90
25640;DHT22;13497;48.322;16.204;2022-09-21T07:41:10;12.10;99.90
25640;DHT22;13497;48.322;16.204;2022-09-21T07:43:36;12.10;99.90
25640;DHT22;13497;48.322;16.204;2022-09-21T07:46:08;12.10;99.90
25640;DHT22;13497;48.322;16.204;2022-09-21T07:48:34;12.00;99.90
25640;DHT22;13497;48.322;16.204;2022-09-21T07:51:04;12.00;99.90
25640;DHT22;13497;48.322;16.204;2022-09-21T07:53:32;12.00;99.90
25640;DHT22;13497;48.322;16.204;2022-09-21T07:56:06;12.00;99.90
25640;DHT22;13497;48.322;16.204;2022-09-21T07:58:32;11.90;99.90
25640;DHT22;13497;48.322;16.204;2022-09-21T08:01:18;11.70;99.90
25640;DHT22;13497;48.322;16.204;2022-09-21T08:03:43;11.60;99.90
25640;DHT22;13497;48.322;16.204;2022-09-21T08:06:09;11.70;99.90
25640;DHT22;13497;48.322;16.204;2022-09-21T08:08:35;11.80;99.90
25640;DHT22;13497;48.322;16.204;2022-09-21T08:11:02;11.80;99.90
25640;DHT22;13497;48.322;16.204;2022-09-21T08:13:28;11.90;99.90
25640;DHT22;13497;48.322;16.204;2022-09-21T08:15:58;12.00;99.90
25640;DHT22;13497;48.322;16.204;2022-09-21T08:18:24;12.30;99.90
25640;DHT22;13497;48.322;16.204;2022-09-21T08:20:59;12.60;99.90
25640;DHT22;13497;48.322;16.204;2022-09-21T08:23:25;12.90;99.90
25640;DHT22;13497;48.322;16.204;2022-09-21T08:26:03;13.10;99.90
25640;DHT22;13497;48.322;16.204;2022-09-21T08:28:31;13.30;99.90
25640;DHT22;13497;48.322;16.204;2022-09-21T08:30:59;13.40;99.90
25640;DHT22;13497;48.322;16.204;2022-09-21T08:33:24;13.20;99.90
25640;DHT22;13497;48.322;16.204;2022-09-21T08:35:55;13.10;99.90
25640;DHT22;13497;48.322;16.204;2022-09-21T08:38:21;13.10;99.90
25640;DHT22;13497;48.322;16.204;2022-09-21T08:40:50;13.20;99.90
25640;DHT22;13497;48.322;16.204;2022-09-21T08:45:50;13.20;99.90
25640;DHT22;13497;48.322;16.204;2022-09-21T08:48:18;13.20;99.90
25640;DHT22;13497;48.322;16.204;2022-09-21T08:50:59;13.40;99.90
25640;DHT22;13497;48.322;16.204;2022-09-21T08:53:38;13.80;99.90
25640;DHT22;13497;48.322;16.204;2022-09-21T08:56:04;14.20;99.90
25640;DHT22;13497;48.322;16.204;2022-09-21T08:58:31;14.30;99.90
25640;DHT22;13497;48.322;16.204;2022-09-21T09:03:52;14.60;99.90
25640;DHT22;13497;48.322;16.204;2022-09-21T09:17:53;15.20;99.90
25640;DHT22;13497;48.322;16.204;2022-09-21T09:20:35;15.30;99.90
25640;DHT22;13497;48.322;16.204;2022-09-21T09:23:23;15.40;99.90
25640;DHT22;13497;48.322;16.204;2022-09-21T09:25:50;15.30;99.90
25640;DHT22;13497;48.322;16.204;2022-09-21T09:31:20;15.40;99.90
25640;DHT22;13497;48.322;16.204;2022-09-21T09:36:14;15.60;99.90
25640;DHT22;13497;48.322;16.204;2022-09-21T09:39:00;15.80;99.90
25640;DHT22;13497;48.322;16.204;2022-09-21T09:52:14;16.50;99.90
25640;DHT22;13497;48.322;16.204;2022-09-21T09:54:41;16.40;99.90
25640;DHT22;13497;48.322;16.204;2022-09-21T09:57:08;16.20;99.90
25640;DHT22;13497;48.322;16.204;2022-09-21T09:59:40;16.40;99.90
25640;DHT22;13497;48.322;16.204;2022-09-21T10:02:27;16.40;99.90
25640;DHT22;13497;48.322;16.204;2022-09-21T10:04:59;16.30;99.90
25640;DHT22;13497;48.322;16.204;2022-09-21T10:10:36;16.20;99.90
25640;DHT22;13497;48.322;16.204;2022-09-21T10:13:05;16.20;99.90
25640;DHT22;13497;48.322;16.204;2022-09-21T10:15:42;16.00;99.90
25640;DHT22;13497;48.322;16.204;2022-09-21T10:21:07;16.10;99.90
25640;DHT22;13497;48.322;16.204;2022-09-21T10:23:34;16.00;99.90
25640;DHT22;13497;48.322;16.204;2022-09-21T10:26:11;16.20;99.90
25640;DHT22;13497;48.322;16.204;2022-09-21T10:29:28;16.30;99.90
25640;DHT22;13497;48.322;16.204;2022-09-21T10:31:59;16.40;99.30
25640;DHT22;13497;48.322;16.204;2022-09-21T10:34:35;16.30;99.20
25640;DHT22;13497;48.322;16.204;2022-09-21T10:37:22;16.50;99.00
25640;DHT22;13497;48.322;16.204;2022-09-21T10:39:47;16.40;99.50
25640;DHT22;13497;48.322;16.204;2022-09-21T10:42:15;16.70;99.10
25640;DHT22;13497;48.322;16.204;2022-09-21T10:44:44;16.60;98.90
25640;DHT22;13497;48.322;16.204;2022-09-21T10:50:03;16.40;99.40
25640;DHT22;13497;48.322;16.204;2022-09-21T10:52:41;16.50;99.00
25640;DHT22;13497;48.322;16.204;2022-09-21T10:55:19;16.30;99.30
25640;DHT22;13497;48.322;16.204;2022-09-21T10:57:46;16.30;98.60
25640;DHT22;13497;48.322;16.204;2022-09-21T11:02:54;16.20;98.20
25640;DHT22;13497;48.322;16.204;2022-09-21T11:05:24;16.30;98.80
25640;DHT22;13497;48.322;16.204;2022-09-21T11:13:52;16.30;99.20
25640;DHT22;13497;48.322;16.204;2022-09-21T11:16:25;16.20;99.10
25640;DHT22;13497;48.322;16.204;2022-09-21T11:19:23;16.00;99.90
25640;DHT22;13497;48.322;16.204;2022-09-21T11:24:36;15.80;99.90
25640;DHT22;13497;48.322;16.204;2022-09-21T11:27:11;15.90;99.90
25640;DHT22;13497;48.322;16.204;2022-09-21T11:29:48;16.00;99.90
25640;DHT22;13497;48.322;16.204;2022-09-21T11:38:15;15.50;99.90
25640;DHT22;13497;48.322;16.204;2022-09-21T11:40:58;15.40;99.90
25640;DHT22;13497;48.322;16.204;2022-09-21T11:49:39;15.50;99.90
25640;DHT22;13497;48.322;16.204;2022-09-21T11:55:21;15.40;99.90
25640;DHT22;13497;48.322;16.204;2022-09-21T11:57:57;15.60;99.90
25640;DHT22;13497;48.322;16.204;2022-09-21T12:03:50;15.70;99.90
25640;DHT22;13497;48.322;16.204;2022-09-21T12:06:42;15.80;99.90
25640;DHT22;13497;48.322;16.204;2022-09-21T12:12:02;16.00;99.90
25640;DHT22;13497;48.322;16.204;2022-09-21T12:17:28;16.50;99.90
25640;DHT22;13497;48.322;16.204;2022-09-21T12:22:37;16.30;99.90
25640;DHT22;13497;48.322;16.204;2022-09-21T12:25:15;16.20;99.90
25640;DHT22;13497;48.322;16.204;2022-09-21T12:27:55;16.10;99.90
25640;DHT22;13497;48.322;16.204;2022-09-21T12:30:23;16.00;99.90
25640;DHT22;13497;48.322;16.204;2022-09-21T12:33:08;15.80;99.90
25640;DHT22;13497;48.322;16.204;2022-09-21T12:35:46;15.60;99.90
25640;DHT22;13497;48.322;16.204;2022-09-21T12:38:21;15.60;99.90
25640;DHT22;13497;48.322;16.204;2022-09-21T12:43:47;15.80;99.90
25640;DHT22;13497;48.322;16.204;2022-09-21T12:46:19;16.00;99.90
25640;DHT22;13497;48.322;16.204;2022-09-21T12:48:45;16.10;99.90
25640;DHT22;13497;48.322;16.204;2022-09-21T12:51:23;16.30;99.90
25640;DHT22;13497;48.322;16.204;2022-09-21T12:53:53;16.30;99.90
25640;DHT22;13497;48.322;16.204;2022-09-21T12:56:33;16.30;99.90
25640;DHT22;13497;48.322;16.204;2022-09-21T13:01:32;16.60;99.90
25640;DHT22;13497;48.322;16.204;2022-09-21T13:09:47;16.30;99.90
25640;DHT22;13497;48.322;16.204;2022-09-21T13:12:31;15.80;99.90
25640;DHT22;13497;48.322;16.204;2022-09-21T13:15:18;15.40;99.90
25640;DHT22;13497;48.322;16.204;2022-09-21T13:18:05;15.40;99.90
25640;DHT22;13497;48.322;16.204;2022-09-21T13:20:44;15.40;99.90
25640;DHT22;13497;48.322;16.204;2022-09-21T13:23:33;15.50;99.90
25640;DHT22;13497;48.322;16.204;2022-09-21T13:26:08;15.50;99.90
25640;DHT22;13497;48.322;16.204;2022-09-21T13:28:58;15.30;99.90
25640;DHT22;13497;48.322;16.204;2022-09-21T13:36:41;15.40;99.90
25640;DHT22;13497;48.322;16.204;2022-09-21T13:41:33;15.40;99.90
25640;DHT22;13497;48.322;16.204;2022-09-21T13:51:53;15.30;99.90
25640;DHT22;13497;48.322;16.204;2022-09-21T13:54:23;15.10;99.90
25640;DHT22;13497;48.322;16.204;2022-09-21T13:57:15;15.20;99.90
25640;DHT22;13497;48.322;16.204;2022-09-21T13:59:43;15.40;99.90
25640;DHT22;13497;48.322;16.204;2022-09-21T14:02:27;15.60;99.90
25640;DHT22;13497;48.322;16.204;2022-09-21T14:08:06;15.80;99.90
25640;DHT22;13497;48.322;16.204;2022-09-21T14:11:07;15.80;99.90
25640;DHT22;13497;48.322;16.204;2022-09-21T14:13:39;15.70;99.90
25640;DHT22;13497;48.322;16.204;2022-09-21T14:18:59;15.30;99.90
25640;DHT22;13497;48.322;16.204;2022-09-21T14:21:26;15.10;99.90
25640;DHT22;13497;48.322;16.204;2022-09-21T14:24:21;15.10;99.90
25640;DHT22;13497;48.322;16.204;2022-09-21T14:26:58;15.10;99.90
25640;DHT22;13497;48.322;16.204;2022-09-21T14:32:20;14.90;99.90
25640;DHT22;13497;48.322;16.204;2022-09-21T14:34:50;14.80;99.90
25640;DHT22;13497;48.322;16.204;2022-09-21T14:37:26;14.70;99.90
25640;DHT22;13497;48.322;16.204;2022-09-21T14:39:53;14.60;99.90
25640;DHT22;13497;48.322;16.204;2022-09-21T14:42:23;14.60;99.90
25640;DHT22;13497;48.322;16.204;2022-09-21T14:44:55;14.80;99.90
25640;DHT22;13497;48.322;16.204;2022-09-21T14:50:53;15.20;99.90
25640;DHT22;13497;48.322;16.204;2022-09-21T15:01:35;15.20;99.90
25640;DHT22;13497;48.322;16.204;2022-09-21T15:04:29;15.40;99.90
25640;DHT22;13497;48.322;16.204;2022-09-21T15:16:02;15.70;99.90
25640;DHT22;13497;48.322;16.204;2022-09-21T15:18:31;15.80;99.90
25640;DHT22;13497;48.322;16.204;2022-09-21T15:21:03;15.70;99.50
25640;DHT22;13497;48.322;16.204;2022-09-21T15:23:37;15.70;99.20
25640;DHT22;13497;48.322;16.204;2022-09-21T15:26:14;15.70;99.90
25640;DHT22;13497;48.322;16.204;2022-09-21T15:28:44;15.70;99.90
25640;DHT22;13497;48.322;16.204;2022-09-21T15:31:13;15.70;99.90
25640;DHT22;13497;48.322;16.204;2022-09-21T15:33:41;15.80;99.90
25640;DHT22;13497;48.322;16.204;2022-09-21T15:36:22;15.80;99.90
25640;DHT22;13497;48.322;16.204;2022-09-21T15:38:49;15.80;99.90
25640;DHT22;13497;48.322;16.204;2022-09-21T15:41:41;15.80;99.90
25640;DHT22;13497;48.322;16.204;2022-09-21T15:44:14;15.80;99.90
25640;DHT22;13497;48.322;16.204;2022-09-21T15:46:43;15.80;99.40
25640;DHT22;13497;48.322;16.204;2022-09-21T15:49:15;15.90;99.90
25640;DHT22;13497;48.322;16.204;2022-09-21T15:51:51;15.90;99.30
25640;DHT22;13497;48.322;16.204;2022-09-21T15:54:27;15.90;98.80
25640;DHT22;13497;48.322;16.204;2022-09-21T15:57:00;16.00;98.90
25640;DHT22;13497;48.322;16.204;2022-09-21T15:59:28;15.90;98.70
25640;DHT22;13497;48.322;16.204;2022-09-21T16:01:57;15.60;97.60
25640;DHT22;13497;48.322;16.204;2022-09-21T16:04:26;15.30;96.80
25640;DHT22;13497;48.322;16.204;2022-09-21T16:07:01;15.20;96.70
25640;DHT22;13497;48.322;16.204;2022-09-21T16:09:43;15.10;97.10
25640;DHT22;13497;48.322;16.204;2022-09-21T16:12:39;15.00;97.20
25640;DHT22;13497;48.322;16.204;2022-09-21T16:15:17;14.90;97.50
25640;DHT22;13497;48.322;16.204;2022-09-21T16:17:56;14.80;97.50
25640;DHT22;13497;48.322;16.204;2022-09-21T16:23:05;14.70;98.20
25640;DHT22;13497;48.322;16.204;2022-09-21T16:25:34;14.50;98.40
25640;DHT22;13497;48.322;16.204;2022-09-21T16:28:25;14.40;98.50
25640;DHT22;13497;48.322;16.204;2022-09-21T16:30:54;14.30;98.80
25640;DHT22;13497;48.322;16.204;2022-09-21T16:33:41;14.20;99.20
25640;DHT22;13497;48.322;16.204;2022-09-21T16:38:44;14.10;99.80
25640;DHT22;13497;48.322;16.204;2022-09-21T16:41:11;14.10;99.80
25640;DHT22;13497;48.322;16.204;2022-09-21T16:43:39;14.10;99.90
25640;DHT22;13497;48.322;16.204;2022-09-21T16:46:11;14.10;99.90
25640;DHT22;13497;48.322;16.204;2022-09-21T16:48:40;14.10;99.90
25640;DHT22;13497;48.322;16.204;2022-09-21T16:51:12;13.90;99.90
25640;DHT22;13497;48.322;16.204;2022-09-21T16:53:39;13.90;99.90
25640;DHT22;13497;48.322;16.204;2022-09-21T16:56:04;13.80;99.90
25640;DHT22;13497;48.322;16.204;2022-09-21T16:58:31;13.80;99.90
25640;DHT22;13497;48.322;16.204;2022-09-21T17:00:57;13.80;99.90
25640;DHT22;13497;48.322;16.204;2022-09-21T17:03:23;13.70;99.90
25640;DHT22;13497;48.322;16.204;2022-09-21T17:05:48;13.70;99.90
25640;DHT22;13497;48.322;16.204;2022-09-21T17:08:14;13.70;99.90
25640;DHT22;13497;48.322;16.204;2022-09-21T17:10:44;13.60;99.90
25640;DHT22;13497;48.322;16.204;2022-09-21T17:13:10;13.60;99.90
25640;DHT22;13497;48.322;16.204;2022-09-21T17:15:37;13.50;99.90
25640;DHT22;13497;48.322;16.204;2022-09-21T17:18:05;13.50;99.90
25640;DHT22;13497;48.322;16.204;2022-09-21T17:20:37;13.50;99.90
25640;DHT22;13497;48.322;16.204;2022-09-21T17:23:03;13.50;99.90
25640;DHT22;13497;48.322;16.204;2022-09-21T17:25:29;13.50;99.90
25640;DHT22;13497;48.322;16.204;2022-09-21T17:27:56;13.40;99.90
25640;DHT22;13497;48.322;16.204;2022-09-21T17:30:22;13.40;99.90
25640;DHT22;13497;48.322;16.204;2022-09-21T17:32:49;13.30;99.90
25640;DHT22;13497;48.322;16.204;2022-09-21T17:35:16;13.30;99.90
25640;DHT22;13497;48.322;16.204;2022-09-21T17:37:42;13.30;99.90
25640;DHT22;13497;48.322;16.204;2022-09-21T17:40:08;13.40;99.90
25640;DHT22;13497;48.322;16.204;2022-09-21T17:42:37;13.40;99.90
25640;DHT22;13497;48.322;16.204;2022-09-21T17:47:29;13.30;99.90
25640;DHT22;13497;48.322;16.204;2022-09-21T17:50:13;13.30;99.90
25640;DHT22;13497;48.322;16.204;2022-09-21T17:52:40;13.20;99.90
25640;DHT22;13497;48.322;16.204;2022-09-21T17:55:24;13.20;99.90
25640;DHT22;13497;48.322;16.204;2022-09-21T18:03:25;13.10;99.90
25640;DHT22;13497;48.322;16.204;2022-09-21T18:05:52;13.10;99.90
25640;DHT22;13497;48.322;16.204;2022-09-21T18:08:28;13.10;99.90
25640;DHT22;13497;48.322;16.204;2022-09-21T18:16:15;13.00;99.90
25640;DHT22;13497;48.322;16.204;2022-09-21T18:19:00;12.90;99.90
25640;DHT22;13497;48.322;16.204;2022-09-21T18:21:27;12.80;99.90
25640;DHT22;13497;48.322;16.204;2022-09-21T18:26:40;12.70;99.90
25640;DHT22;13497;48.322;16.204;2022-09-21T18:29:09;12.60;99.90
25640;DHT22;13497;48.322;16.204;2022-09-21T18:45:11;12.50;99.90
25640;DHT22;13497;48.322;16.204;2022-09-21T18:50:20;12.50;99.90
25640;DHT22;13497;48.322;16.204;2022-09-21T18:53:03;12.50;99.90
25640;DHT22;13497;48.322;16.204;2022-09-21T18:55:30;12.40;99.90
25640;DHT22;13497;48.322;16.204;2022-09-21T18:57:58;12.40;99.90
25640;DHT22;13497;48.322;16.204;2022-09-21T19:00:24;12.40;99.90
25640;DHT22;13497;48.322;16.204;2022-09-21T19:03:14;12.30;99.90
25640;DHT22;13497;48.322;16.204;2022-09-21T19:05:52;12.30;99.90
25640;DHT22;13497;48.322;16.204;2022-09-21T19:08:24;12.30;99.90
25640;DHT22;13497;48.322;16.204;2022-09-21T19:10:53;12.20;99.90
25640;DHT22;13497;48.322;16.204;2022-09-21T19:18:34;12.10;99.90
25640;DHT22;13497;48.322;16.204;2022-09-21T19:23:55;12.10;99.90